Station Historical Data
Daily Summary for May 29, 2017 Units:  English    Metric   Both
Next Day »
Daily Weekly Monthly Yearly Custom
  High: Low: Average:
Temperature: 79.7 °F 62.2 °F 69.6 °F
Dew Point: 60.7 °F 44.0 °F 54.7 °F
Humidity: 74% 49% 60%
Wind Speed: 11.0mph 0.0mph 1mph
Wind Gust: 14.0mph - -
Wind- - SSE
Pressure: 29.96 in 29.83 in -
Precipitation: 0.00 in    
Historical Graphs
 
 
Tabular Data for May 29, 2017
Time Temperature Dew Point Pressure Wind Wind Speed Wind Gust Humidity Rainfall Rate (Hourly) solar Conditions
00:02 63.7 °F 54.9 °F 29.96 in Calm     73% 0.00 in 0.00 W/m2
00:07 63.8 °F 55.0 °F 29.96 in East 8.0 mph 8.0 mph 73% 0.00 in 0.00 W/m2
00:13 63.8 °F 55.4 °F 29.96 in Calm   11.0 mph 74% 0.00 in 0.00 W/m2
00:17 63.8 °F 55.4 °F 29.96 in Calm   11.0 mph 74% 0.00 in 0.00 W/m2
00:22 63.9 °F 55.5 °F 29.96 in Calm   7.0 mph 74% 0.00 in 0.00 W/m2
00:28 63.9 °F 55.5 °F 29.96 in East 5.0 mph 7.0 mph 74% 0.00 in 0.00 W/m2
00:33 64.0 °F 55.6 °F 29.96 in East 2.0 mph 6.0 mph 74% 0.00 in 0.00 W/m2
00:38 64.0 °F 55.2 °F 29.95 in Calm   8.0 mph 73% 0.00 in 0.00 W/m2
00:43 64.0 °F 55.2 °F 29.95 in ESE 6.0 mph 7.0 mph 73% 0.00 in 0.00 W/m2
00:48 64.1 °F 54.9 °F 29.95 in East 6.0 mph 9.0 mph 72% 0.00 in 0.00 W/m2
00:53 64.1 °F 54.5 °F 29.95 in Calm   12.0 mph 71% 0.00 in 0.00 W/m2
00:58 64.2 °F 54.6 °F 29.95 in East 5.0 mph 11.0 mph 71% 0.00 in 0.00 W/m2
00:59 64.2 °F 54.6 °F 29.94 in ESE 5.0 mph 11.0 mph 71% 0.00 in 0.00 W/m2
01:04 64.3 °F 54.3 °F 29.94 in East 4.0 mph 11.0 mph 70% 0.00 in 0.00 W/m2
01:09 64.3 °F 54.3 °F 29.94 in ESE 8.0 mph 14.0 mph 70% 0.00 in 0.00 W/m2
01:14 64.4 °F 54.0 °F 29.94 in Calm   12.0 mph 69% 0.00 in 0.00 W/m2
01:19 64.4 °F 53.6 °F 29.94 in ESE 6.0 mph 12.0 mph 68% 0.00 in 0.00 W/m2
01:24 64.5 °F 53.7 °F 29.94 in ESE 9.0 mph 12.0 mph 68% 0.00 in 0.00 W/m2
01:29 64.5 °F 53.3 °F 29.94 in Calm   9.0 mph 67% 0.00 in 0.00 W/m2
01:34 64.5 °F 53.3 °F 29.94 in ESE 4.0 mph 12.0 mph 67% 0.00 in 0.00 W/m2
01:39 64.4 °F 53.2 °F 29.94 in Calm   9.0 mph 67% 0.00 in 0.00 W/m2
01:49 64.4 °F 52.8 °F 29.94 in Calm   9.0 mph 66% 0.00 in 0.00 W/m2
01:54 64.4 °F 52.8 °F 29.94 in ESE 4.0 mph 12.0 mph 66% 0.00 in 0.00 W/m2
01:59 64.3 °F 52.7 °F 29.94 in Calm   11.0 mph 66% 0.00 in 0.00 W/m2
02:04 64.3 °F 52.3 °F 29.94 in Calm   8.0 mph 65% 0.00 in 0.00 W/m2
02:09 64.3 °F 52.3 °F 29.94 in Calm   8.0 mph 65% 0.00 in 0.00 W/m2
02:14 64.1 °F 52.1 °F 29.94 in Calm   8.0 mph 65% 0.00 in 0.00 W/m2
02:19 64.1 °F 51.7 °F 29.94 in Calm   8.0 mph 64% 0.00 in 0.00 W/m2
02:24 64.0 °F 51.2 °F 29.94 in ESE 2.0 mph 8.0 mph 63% 0.00 in 0.00 W/m2
02:29 63.9 °F 51.1 °F 29.94 in East 2.0 mph 9.0 mph 63% 0.00 in 0.00 W/m2
02:34 63.8 °F 50.5 °F 29.94 in Calm   8.0 mph 62% 0.00 in 0.00 W/m2
02:39 63.8 °F 50.1 °F 29.93 in Calm   9.0 mph 61% 0.00 in 0.00 W/m2
02:44 63.7 °F 50.5 °F 29.93 in ESE 1.0 mph 11.0 mph 62% 0.00 in 0.00 W/m2
02:49 63.7 °F 50.9 °F 29.93 in Calm   7.0 mph 63% 0.00 in 0.00 W/m2
02:54 63.6 °F 50.4 °F 29.93 in Calm   7.0 mph 62% 0.00 in 0.00 W/m2
02:59 63.5 °F 50.3 °F 29.93 in ESE 6.0 mph 11.0 mph 62% 0.00 in 0.00 W/m2
03:04 63.4 °F 49.7 °F 29.93 in ESE 4.0 mph 8.0 mph 61% 0.00 in 0.00 W/m2
03:09 63.4 °F 49.3 °F 29.93 in ESE 5.0 mph 9.0 mph 60% 0.00 in 0.00 W/m2
03:14 63.3 °F 49.2 °F 29.93 in Calm   7.0 mph 60% 0.00 in 0.00 W/m2
03:19 63.2 °F 48.7 °F 29.93 in Calm   9.0 mph 59% 0.00 in 0.00 W/m2
03:24 63.2 °F 48.2 °F 29.93 in Calm   7.0 mph 58% 0.00 in 0.00 W/m2
03:29 63.1 °F 48.1 °F 29.93 in ESE 9.0 mph 12.0 mph 58% 0.00 in 0.00 W/m2
03:34 63.1 °F 48.1 °F 29.93 in Calm   11.0 mph 58% 0.00 in 0.00 W/m2
03:39 63.0 °F 47.1 °F 29.93 in East 2.0 mph 8.0 mph 56% 0.00 in 0.00 W/m2
03:44 63.1 °F 47.6 °F 29.93 in East 11.0 mph 11.0 mph 57% 0.00 in 0.00 W/m2
03:49 63.0 °F 47.1 °F 29.93 in East 6.0 mph 11.0 mph 56% 0.00 in 0.00 W/m2
03:54 63.1 °F 47.6 °F 29.93 in Calm   9.0 mph 57% 0.00 in 0.00 W/m2
03:59 63.1 °F 48.1 °F 29.93 in East 6.0 mph 12.0 mph 58% 0.00 in 0.00 W/m2
04:04 63.1 °F 47.6 °F 29.92 in Calm   9.0 mph 57% 0.00 in 0.00 W/m2
04:10 63.1 °F 47.6 °F 29.92 in Calm   13.0 mph 57% 0.00 in 0.00 W/m2
04:15 63.1 °F 47.2 °F 29.92 in Calm   13.0 mph 56% 0.00 in 0.00 W/m2
04:19 63.0 °F 47.1 °F 29.92 in East 7.0 mph 12.0 mph 56% 0.00 in 0.00 W/m2
04:25 63.0 °F 46.6 °F 29.92 in East 6.0 mph 13.0 mph 55% 0.00 in 0.00 W/m2
04:30 63.0 °F 46.1 °F 29.92 in Calm   14.0 mph 54% 0.00 in 0.00 W/m2
04:35 62.9 °F 46.5 °F 29.92 in East 1.0 mph 11.0 mph 55% 0.00 in 0.00 W/m2
04:40 62.9 °F 46.5 °F 29.92 in ESE 2.0 mph 14.0 mph 55% 0.00 in 0.00 W/m2
04:45 62.8 °F 45.9 °F 29.92 in East 5.0 mph 14.0 mph 54% 0.00 in 0.00 W/m2
04:50 62.7 °F 45.8 °F 29.92 in East 4.0 mph 12.0 mph 54% 0.00 in 0.00 W/m2
04:55 62.7 °F 46.3 °F 29.92 in East 4.0 mph 12.0 mph 55% 0.00 in 0.00 W/m2
04:58 62.7 °F 46.3 °F 29.92 in Calm   8.0 mph 55% 0.00 in 0.00 W/m2
05:03 62.6 °F 46.2 °F 29.92 in ESE 4.0 mph 12.0 mph 55% 0.00 in 0.00 W/m2
05:08 62.5 °F 45.7 °F 29.92 in Calm   9.0 mph 54% 0.00 in 0.00 W/m2
05:13 62.5 °F 45.2 °F 29.91 in East 2.0 mph 9.0 mph 53% 0.00 in 0.00 W/m2
05:18 62.4 °F 45.1 °F 29.91 in Calm   11.0 mph 53% 0.00 in 0.00 W/m2
05:23 62.5 °F 45.2 °F 29.91 in Calm   7.0 mph 53% 0.00 in 0.00 W/m2
05:28 62.4 °F 45.1 °F 29.92 in Calm   12.0 mph 53% 0.00 in 0.00 W/m2
05:33 62.4 °F 44.6 °F 29.91 in Calm   11.0 mph 52% 0.00 in 5.00 W/m2
05:38 62.4 °F 44.6 °F 29.92 in ESE 4.0 mph 11.0 mph 52% 0.00 in 9.00 W/m2
05:43 62.3 °F 44.5 °F 29.92 in East 8.0 mph 12.0 mph 52% 0.00 in 12.00 W/m2
05:48 62.3 °F 44.5 °F 29.92 in ESE 4.0 mph 8.0 mph 52% 0.00 in 18.00 W/m2
05:51 62.3 °F 44.0 °F 29.92 in East 5.0 mph 8.0 mph 51% 0.00 in 23.00 W/m2
05:56 62.3 °F 44.5 °F 29.92 in Calm   5.0 mph 52% 0.00 in 32.00 W/m2
06:01 62.3 °F 44.0 °F 29.92 in ESE 4.0 mph 8.0 mph 51% 0.00 in 40.00 W/m2
06:06 62.3 °F 44.5 °F 29.92 in Calm   9.0 mph 52% 0.00 in 46.00 W/m2
06:07 62.3 °F 44.5 °F 29.92 in East 5.0 mph 11.0 mph 52% 0.00 in 49.00 W/m2
06:12 62.3 °F 44.5 °F 29.92 in Calm   8.0 mph 52% 0.00 in 56.00 W/m2
06:17 62.4 °F 44.0 °F 29.92 in Calm   11.0 mph 51% 0.00 in 69.00 W/m2
06:22 62.3 °F 44.5 °F 29.92 in East 2.0 mph 6.0 mph 52% 0.00 in 81.00 W/m2
06:27 62.4 °F 44.6 °F 29.92 in Calm   5.0 mph 52% 0.00 in 95.00 W/m2
06:32 62.4 °F 45.1 °F 29.92 in East 1.0 mph 4.0 mph 53% 0.00 in 111.00 W/m2
06:37 62.4 °F 45.1 °F 29.92 in Calm     53% 0.00 in 105.00 W/m2
06:42 62.4 °F 46.0 °F 29.92 in Calm     55% 0.00 in 151.00 W/m2
06:48 62.3 °F 46.4 °F 29.92 in East 4.0 mph 8.0 mph 56% 0.00 in 156.00 W/m2
06:53 62.3 °F 46.9 °F 29.92 in Calm     57% 0.00 in 162.00 W/m2
06:58 62.2 °F 45.8 °F 29.92 in Calm     55% 0.00 in 149.00 W/m2
07:03 62.2 °F 47.3 °F 29.93 in Calm     58% 0.00 in 186.00 W/m2
07:08 62.2 °F 47.7 °F 29.93 in Calm     59% 0.00 in 179.00 W/m2
07:13 62.2 °F 47.7 °F 29.93 in Calm     59% 0.00 in 204.00 W/m2
07:18 62.2 °F 48.6 °F 29.93 in Calm     61% 0.00 in 225.00 W/m2
07:23 62.3 °F 49.1 °F 29.93 in Calm     62% 0.00 in 230.00 W/m2
07:28 62.3 °F 48.7 °F 29.92 in Calm     61% 0.00 in 169.00 W/m2
07:33 62.3 °F 49.6 °F 29.92 in Calm     63% 0.00 in 214.00 W/m2
07:38 62.3 °F 50.4 °F 29.92 in Calm     65% 0.00 in 209.00 W/m2
07:43 62.3 °F 50.4 °F 29.92 in Calm     65% 0.00 in 199.00 W/m2
07:48 62.4 °F 50.5 °F 29.92 in Calm     65% 0.00 in 241.00 W/m2
07:53 62.5 °F 50.6 °F 29.92 in Calm     65% 0.00 in 318.00 W/m2
07:58 62.5 °F 50.6 °F 29.92 in Calm     65% 0.00 in 239.00 W/m2
08:03 62.6 °F 51.5 °F 29.92 in Calm     67% 0.00 in 346.00 W/m2
08:08 62.7 °F 51.6 °F 29.92 in Calm     67% 0.00 in 376.00 W/m2
08:13 62.8 °F 52.1 °F 29.92 in Calm     68% 0.00 in 378.00 W/m2
08:18 62.9 °F 52.6 °F 29.92 in Calm     69% 0.00 in 302.00 W/m2
08:23 63.1 °F 53.2 °F 29.92 in Calm     70% 0.00 in 374.00 W/m2
08:28 63.2 °F 53.7 °F 29.92 in Calm     71% 0.00 in 302.00 W/m2
08:33 63.4 °F 53.8 °F 29.92 in Calm     71% 0.00 in 367.00 W/m2
08:38 63.7 °F 54.1 °F 29.92 in Calm     71% 0.00 in 250.00 W/m2
08:43 63.9 °F 54.7 °F 29.91 in Calm   1.0 mph 72% 0.00 in 424.00 W/m2
08:48 64.1 °F 54.9 °F 29.91 in Calm   2.0 mph 72% 0.00 in 371.00 W/m2
08:53 64.4 °F 54.8 °F 29.91 in Calm     71% 0.00 in 485.00 W/m2
08:58 64.6 °F 55.4 °F 29.91 in Calm   2.0 mph 72% 0.00 in 608.00 W/m2
09:03 64.8 °F 55.2 °F 29.91 in Calm     71% 0.00 in 606.00 W/m2
09:08 65.0 °F 55.4 °F 29.91 in Calm     71% 0.00 in 506.00 W/m2
09:13 65.3 °F 52.4 °F 29.91 in Calm     63% 0.00 in 524.00 W/m2
09:18 65.7 °F 52.8 °F 29.91 in Calm     63% 0.00 in 475.00 W/m2
09:23 66.0 °F 52.2 °F 29.91 in Calm     61% 0.00 in 527.00 W/m2
09:28 66.4 °F 54.3 °F 29.91 in Calm     65% 0.00 in 594.00 W/m2
09:33 66.9 °F 54.8 °F 29.91 in Calm     65% 0.00 in 547.00 W/m2
09:38 67.4 °F 54.8 °F 29.91 in Calm     64% 0.00 in 563.00 W/m2
09:43 67.8 °F 54.8 °F 29.91 in Calm     63% 0.00 in 731.00 W/m2
09:48 68.3 °F 54.3 °F 29.91 in Calm     61% 0.00 in 598.00 W/m2
09:53 68.7 °F 54.7 °F 29.91 in Calm     61% 0.00 in 640.00 W/m2
09:58 69.1 °F 55.1 °F 29.91 in Calm     61% 0.00 in 779.00 W/m2
10:03 69.5 °F 55.5 °F 29.91 in Calm   2.0 mph 61% 0.00 in 809.00 W/m2
10:08 70.0 °F 55.5 °F 29.91 in Calm   2.0 mph 60% 0.00 in 835.00 W/m2
10:13 70.5 °F 55.5 °F 29.91 in Calm   4.0 mph 59% 0.00 in 821.00 W/m2
10:18 71.0 °F 54.5 °F 29.90 in NE 2.0 mph 5.0 mph 56% 0.00 in 691.00 W/m2
10:23 71.5 °F 55.0 °F 29.91 in Calm   1.0 mph 56% 0.00 in 580.00 W/m2
10:28 71.8 °F 54.3 °F 29.91 in Calm   6.0 mph 54% 0.00 in 668.00 W/m2
10:33 72.1 °F 54.6 °F 29.91 in Calm   5.0 mph 54% 0.00 in 733.00 W/m2
10:38 72.2 °F 54.7 °F 29.91 in Calm   3.0 mph 54% 0.00 in 731.00 W/m2
10:44 72.4 °F 55.3 °F 29.91 in Calm   4.0 mph 55% 0.00 in 805.00 W/m2
10:49 72.5 °F 54.4 °F 29.91 in Calm   5.0 mph 53% 0.00 in 791.00 W/m2
10:54 72.6 °F 55.5 °F 29.91 in Calm   6.0 mph 55% 0.00 in 828.00 W/m2
10:59 72.7 °F 55.1 °F 29.91 in Calm   3.0 mph 54% 0.00 in 817.00 W/m2
11:04 72.8 °F 55.2 °F 29.91 in Calm   6.0 mph 54% 0.00 in 898.00 W/m2
11:09 72.9 °F 56.3 °F 29.91 in Calm   4.0 mph 56% 0.00 in 939.00 W/m2
11:14 73.1 °F 55.0 °F 29.91 in West 3.0 mph 7.0 mph 53% 0.00 in 817.00 W/m2
11:19 73.1 °F 57.0 °F 29.91 in West 2.0 mph 7.0 mph 57% 0.00 in 807.00 W/m2
11:24 73.3 °F 57.7 °F 29.91 in Calm   4.0 mph 58% 0.00 in 905.00 W/m2
11:29 73.4 °F 57.7 °F 29.91 in Calm   4.0 mph 58% 0.00 in 812.00 W/m2
11:34 73.4 °F 58.2 °F 29.91 in West 2.0 mph 6.0 mph 59% 0.00 in 909.00 W/m2
11:39 73.4 °F 58.2 °F 29.91 in WSW 4.0 mph 7.0 mph 59% 0.00 in 916.00 W/m2
11:44 73.4 °F 58.7 °F 29.91 in West 6.0 mph 6.0 mph 60% 0.00 in 860.00 W/m2
11:49 73.5 °F 59.2 °F 29.91 in Calm   4.0 mph 61% 0.00 in 868.00 W/m2
11:54 73.7 °F 59.4 °F 29.91 in Calm   5.0 mph 61% 0.00 in 937.00 W/m2
11:55 73.7 °F 59.4 °F 29.91 in Calm   5.0 mph 61% 0.00 in 954.00 W/m2
12:00 73.7 °F 59.4 °F 29.91 in Calm   5.0 mph 61% 0.00 in 942.00 W/m2
12:05 74.0 °F 59.7 °F 29.91 in Calm     61% 0.00 in 937.00 W/m2
12:10 74.2 °F 59.4 °F 29.91 in Calm   2.0 mph 60% 0.00 in 940.00 W/m2
12:15 74.6 °F 59.8 °F 29.91 in Calm   4.0 mph 60% 0.00 in 944.00 W/m2
12:20 74.9 °F 59.1 °F 29.91 in WNW 7.0 mph 7.0 mph 58% 0.00 in 946.00 W/m2
12:25 75.1 °F 59.3 °F 29.91 in Calm   6.0 mph 58% 0.00 in 944.00 W/m2
12:30 75.6 °F 60.3 °F 29.90 in Calm   3.0 mph 59% 0.00 in 944.00 W/m2
12:35 76.0 °F 60.7 °F 29.90 in Calm   2.0 mph 59% 0.00 in 942.00 W/m2
12:40 76.2 °F 60.4 °F 29.90 in Calm   2.0 mph 58% 0.00 in 942.00 W/m2
12:45 76.4 °F 59.6 °F 29.90 in Calm   5.0 mph 56% 0.00 in 946.00 W/m2
12:50 76.6 °F 59.8 °F 29.90 in SW 4.0 mph 7.0 mph 56% 0.00 in 947.00 W/m2
12:55 77.1 °F 58.7 °F 29.90 in Calm   6.0 mph 53% 0.00 in 947.00 W/m2
13:00 77.8 °F 58.8 °F 29.90 in Calm     52% 0.00 in 947.00 W/m2
13:05 78.4 °F 59.9 °F 29.90 in Calm   4.0 mph 53% 0.00 in 949.00 W/m2
13:10 78.5 °F 59.4 °F 29.90 in Calm   3.0 mph 52% 0.00 in 947.00 W/m2
13:15 78.2 °F 59.2 °F 29.90 in Calm   2.0 mph 52% 0.00 in 944.00 W/m2
13:20 78.1 °F 59.6 °F 29.89 in Calm   5.0 mph 53% 0.00 in 944.00 W/m2
13:25 78.4 °F 58.2 °F 29.90 in Calm   6.0 mph 50% 0.00 in 942.00 W/m2
13:30 78.7 °F 59.1 °F 29.89 in Calm   8.0 mph 51% 0.00 in 939.00 W/m2
13:35 78.8 °F 59.7 °F 29.89 in Calm   5.0 mph 52% 0.00 in 939.00 W/m2
13:40 78.6 °F 57.9 °F 29.89 in Calm   5.0 mph 49% 0.00 in 932.00 W/m2
13:45 78.4 °F 58.2 °F 29.89 in Calm   6.0 mph 50% 0.00 in 932.00 W/m2
13:50 78.5 °F 59.4 °F 29.89 in Calm   5.0 mph 52% 0.00 in 928.00 W/m2
13:55 78.6 °F 59.0 °F 29.89 in WSW 3.0 mph 8.0 mph 51% 0.00 in 925.00 W/m2
14:00 78.6 °F 57.9 °F 29.88 in Calm   6.0 mph 49% 0.00 in 923.00 W/m2
14:05 78.7 °F 58.0 °F 29.88 in West 1.0 mph 7.0 mph 49% 0.00 in 919.00 W/m2
14:10 78.8 °F 58.6 °F 29.88 in Calm   7.0 mph 50% 0.00 in 912.00 W/m2
14:15 78.7 °F 59.1 °F 29.88 in Calm   7.0 mph 51% 0.00 in 905.00 W/m2
14:20 78.8 °F 59.2 °F 29.88 in West 2.0 mph 7.0 mph 51% 0.00 in 898.00 W/m2
14:25 79.0 °F 59.3 °F 29.88 in Calm   6.0 mph 51% 0.00 in 893.00 W/m2
14:30 79.1 °F 59.4 °F 29.88 in Calm   9.0 mph 51% 0.00 in 886.00 W/m2
14:35 79.3 °F 59.6 °F 29.87 in Calm   12.0 mph 51% 0.00 in 882.00 W/m2
14:40 79.5 °F 59.8 °F 29.87 in Calm   7.0 mph 51% 0.00 in 874.00 W/m2
14:45 79.6 °F 59.3 °F 29.87 in WSW 6.0 mph 7.0 mph 50% 0.00 in 867.00 W/m2
14:51 79.7 °F 59.4 °F 29.87 in West 3.0 mph 8.0 mph 50% 0.00 in 860.00 W/m2
14:55 79.7 °F 60.0 °F 29.87 in WSW 4.0 mph 10.0 mph 51% 0.00 in 846.00 W/m2
15:01 79.6 °F 59.3 °F 29.86 in WSW 6.0 mph 8.0 mph 50% 0.00 in 861.00 W/m2
15:06 79.7 °F 60.0 °F 29.86 in West 5.0 mph 9.0 mph 51% 0.00 in 842.00 W/m2
15:11 79.6 °F 59.9 °F 29.86 in Calm   7.0 mph 51% 0.00 in 584.00 W/m2
15:16 79.3 °F 59.1 °F 29.86 in West 4.0 mph 7.0 mph 50% 0.00 in 828.00 W/m2
15:20 79.2 °F 60.1 °F 29.86 in Calm   9.0 mph 52% 0.00 in 831.00 W/m2
15:26 79.1 °F 58.9 °F 29.86 in Calm   8.0 mph 50% 0.00 in 824.00 W/m2
15:31 79.0 °F 59.9 °F 29.86 in Calm   7.0 mph 52% 0.00 in 817.00 W/m2
15:36 78.9 °F 59.2 °F 29.86 in Calm   1.0 mph 51% 0.00 in 779.00 W/m2
15:41 78.9 °F 59.8 °F 29.86 in Calm   1.0 mph 52% 0.00 in 821.00 W/m2
15:46 78.7 °F 60.2 °F 29.86 in SW 2.0 mph 5.0 mph 53% 0.00 in 772.00 W/m2
15:50 78.5 °F 60.5 °F 29.86 in Calm   11.0 mph 54% 0.00 in 673.00 W/m2
15:56 78.2 °F 60.2 °F 29.86 in Calm   11.0 mph 54% 0.00 in 584.00 W/m2
16:00 77.9 °F 59.9 °F 29.86 in Calm   9.0 mph 54% 0.00 in 504.00 W/m2
16:06 77.6 °F 59.7 °F 29.86 in Calm   7.0 mph 54% 0.00 in 599.00 W/m2
16:11 77.5 °F 60.1 °F 29.86 in West 4.0 mph 8.0 mph 55% 0.00 in 689.00 W/m2
16:16 77.4 °F 60.0 °F 29.86 in Calm   4.0 mph 55% 0.00 in 707.00 W/m2
16:21 77.4 °F 60.0 °F 29.86 in Calm   9.0 mph 55% 0.00 in 687.00 W/m2
16:26 77.4 °F 60.0 °F 29.86 in WNW 1.0 mph 6.0 mph 55% 0.00 in 745.00 W/m2
16:31 77.3 °F 59.4 °F 29.86 in Calm   6.0 mph 54% 0.00 in 698.00 W/m2
16:36 77.4 °F 59.0 °F 29.85 in Calm   4.0 mph 53% 0.00 in 622.00 W/m2
16:41 77.3 °F 58.8 °F 29.85 in Calm   8.0 mph 53% 0.00 in 524.00 W/m2
16:46 77.3 °F 58.8 °F 29.85 in Calm   1.0 mph 53% 0.00 in 519.00 W/m2
16:51 77.2 °F 59.3 °F 29.85 in Calm   6.0 mph 54% 0.00 in 584.00 W/m2
16:56 77.1 °F 58.7 °F 29.85 in Calm   8.0 mph 53% 0.00 in 527.00 W/m2
17:01 77.1 °F 58.1 °F 29.85 in Calm   4.0 mph 52% 0.00 in 445.00 W/m2
17:06 76.7 °F 58.3 °F 29.85 in Calm   5.0 mph 53% 0.00 in 476.00 W/m2
17:11 76.6 °F 58.7 °F 29.84 in Calm   7.0 mph 54% 0.00 in 482.00 W/m2
17:15 76.6 °F 58.7 °F 29.84 in Calm   2.0 mph 54% 0.00 in 445.00 W/m2
17:21 76.5 °F 58.6 °F 29.84 in NW 1.0 mph 7.0 mph 54% 0.00 in 429.00 W/m2
17:26 76.4 °F 58.5 °F 29.85 in Calm   1.0 mph 54% 0.00 in 413.00 W/m2
17:27 76.4 °F 58.5 °F 29.85 in Calm   1.0 mph 54% 0.00 in 413.00 W/m2
17:32 76.4 °F 59.1 °F 29.84 in NW 3.0 mph 7.0 mph 55% 0.00 in 487.00 W/m2
17:37 76.3 °F 58.5 °F 29.84 in Calm   2.0 mph 54% 0.00 in 199.00 W/m2
17:42 76.3 °F 57.9 °F 29.84 in Calm     53% 0.00 in 418.00 W/m2
17:47 76.3 °F 57.9 °F 29.84 in Calm   4.0 mph 53% 0.00 in 420.00 W/m2
17:52 76.4 °F 58.0 °F 29.84 in Calm   3.0 mph 53% 0.00 in 396.00 W/m2
17:57 76.4 °F 57.5 °F 29.84 in Calm     52% 0.00 in 406.00 W/m2
18:02 76.5 °F 57.6 °F 29.84 in WNW 1.0 mph 5.0 mph 52% 0.00 in 338.00 W/m2
18:07 76.5 °F 58.1 °F 29.84 in Calm   1.0 mph 53% 0.00 in 367.00 W/m2
18:12 76.5 °F 57.6 °F 29.83 in NW 3.0 mph 3.0 mph 52% 0.00 in 357.00 W/m2
18:17 76.4 °F 57.0 °F 29.83 in Calm     51% 0.00 in 343.00 W/m2
18:22 76.4 °F 57.0 °F 29.83 in Calm     51% 0.00 in 322.00 W/m2
18:27 76.3 °F 56.3 °F 29.84 in Calm     50% 0.00 in 306.00 W/m2
18:32 76.2 °F 56.2 °F 29.84 in Calm     50% 0.00 in 283.00 W/m2
18:37 76.2 °F 56.8 °F 29.84 in Calm     51% 0.00 in 276.00 W/m2
18:42 76.1 °F 56.7 °F 29.84 in WNW 1.0 mph 4.0 mph 51% 0.00 in 262.00 W/m2
18:47 76.1 °F 56.7 °F 29.84 in Calm   1.0 mph 51% 0.00 in 243.00 W/m2
18:52 76.1 °F 57.2 °F 29.84 in Calm   4.0 mph 52% 0.00 in 227.00 W/m2
18:57 76.0 °F 56.6 °F 29.84 in Calm     51% 0.00 in 211.00 W/m2
19:02 75.8 °F 56.4 °F 29.84 in Calm     51% 0.00 in 195.00 W/m2
19:07 75.8 °F 57.5 °F 29.84 in Calm     53% 0.00 in 178.00 W/m2
19:12 75.8 °F 58.0 °F 29.85 in Calm     54% 0.00 in 158.00 W/m2
19:17 75.7 °F 57.9 °F 29.85 in Calm     54% 0.00 in 141.00 W/m2
19:22 75.6 °F 58.3 °F 29.85 in Calm   1.0 mph 55% 0.00 in 104.00 W/m2
19:27 75.5 °F 58.2 °F 29.85 in Calm     55% 0.00 in 77.00 W/m2
19:32 75.3 °F 58.5 °F 29.85 in Calm     56% 0.00 in 54.00 W/m2
19:37 75.1 °F 57.3 °F 29.85 in Calm     54% 0.00 in 42.00 W/m2
19:42 74.9 °F 58.2 °F 29.85 in Calm     56% 0.00 in 33.00 W/m2
19:47 74.8 °F 58.6 °F 29.85 in Calm   2.0 mph 57% 0.00 in 26.00 W/m2
19:52 74.6 °F 58.4 °F 29.85 in Calm     57% 0.00 in 21.00 W/m2
19:57 74.3 °F 58.6 °F 29.85 in Calm     58% 0.00 in 16.00 W/m2
20:02 74.0 °F 58.3 °F 29.85 in Calm     58% 0.00 in 12.00 W/m2
20:07 73.8 °F 58.6 °F 29.86 in Calm     59% 0.00 in 9.00 W/m2
20:12 73.5 °F 58.8 °F 29.86 in Calm   4.0 mph 60% 0.00 in 7.00 W/m2
20:14 73.4 °F 58.2 °F 29.86 in Calm   4.0 mph 59% 0.00 in 7.00 W/m2
20:19 73.1 °F 58.4 °F 29.86 in Calm     60% 0.00 in 7.00 W/m2
20:24 72.9 °F 58.2 °F 29.86 in Calm     60% 0.00 in 0.00 W/m2
20:29 72.5 °F 58.3 °F 29.87 in Calm   2.0 mph 61% 0.00 in 0.00 W/m2
20:34 72.3 °F 58.1 °F 29.87 in Calm     61% 0.00 in 0.00 W/m2
20:39 72.0 °F 58.3 °F 29.87 in Calm     62% 0.00 in 0.00 W/m2
20:44 71.5 °F 58.3 °F 29.87 in Calm     63% 0.00 in 0.00 W/m2
20:49 71.2 °F 58.0 °F 29.87 in Calm     63% 0.00 in 0.00 W/m2
20:54 70.9 °F 58.1 °F 29.87 in Calm     64% 0.00 in 0.00 W/m2
20:57 70.8 °F 58.0 °F 29.87 in Calm     64% 0.00 in 0.00 W/m2
21:02 70.5 °F 58.2 °F 29.86 in Calm     65% 0.00 in 0.00 W/m2
21:07 70.1 °F 57.8 °F 29.86 in Calm     65% 0.00 in 0.00 W/m2
21:12 69.5 °F 57.7 °F 29.86 in Calm     66% 0.00 in 0.00 W/m2
21:17 69.1 °F 57.3 °F 29.86 in Calm     66% 0.00 in 0.00 W/m2
21:22 68.6 °F 57.2 °F 29.86 in Calm     67% 0.00 in 0.00 W/m2
21:27 68.3 °F 57.3 °F 29.86 in Calm     68% 0.00 in 0.00 W/m2
21:32 68.1 °F 57.2 °F 29.86 in Calm     68% 0.00 in 0.00 W/m2
21:37 67.9 °F 57.0 °F 29.87 in Calm     68% 0.00 in 0.00 W/m2
21:42 67.6 °F 56.7 °F 29.87 in Calm     68% 0.00 in 0.00 W/m2
21:47 67.3 °F 56.8 °F 29.87 in Calm     69% 0.00 in 0.00 W/m2
21:52 67.1 °F 56.6 °F 29.87 in Calm     69% 0.00 in 0.00 W/m2
21:57 67.0 °F 56.5 °F 29.87 in Calm     69% 0.00 in 0.00 W/m2
22:02 66.9 °F 56.8 °F 29.87 in Calm     70% 0.00 in 0.00 W/m2
22:07 66.8 °F 56.7 °F 29.87 in Calm     70% 0.00 in 0.00 W/m2
22:12 66.7 °F 56.6 °F 29.87 in Calm     70% 0.00 in 0.00 W/m2
22:17 66.5 °F 56.8 °F 29.86 in Calm     71% 0.00 in 0.00 W/m2
22:22 66.3 °F 56.6 °F 29.86 in Calm     71% 0.00 in 0.00 W/m2
22:27 66.1 °F 56.4 °F 29.87 in Calm     71% 0.00 in 0.00 W/m2
22:32 66.0 °F 56.7 °F 29.87 in Calm     72% 0.00 in 0.00 W/m2
22:37 65.8 °F 56.5 °F 29.87 in Calm     72% 0.00 in 0.00 W/m2
22:42 65.7 °F 56.4 °F 29.87 in Calm     72% 0.00 in 0.00 W/m2
22:47 65.7 °F 56.4 °F 29.87 in Calm     72% 0.00 in 0.00 W/m2
22:52 65.6 °F 56.3 °F 29.87 in Calm     72% 0.00 in 0.00 W/m2
22:57 65.6 °F 56.3 °F 29.87 in SW 4.0 mph 5.0 mph 72% 0.00 in 0.00 W/m2
23:02 65.6 °F 56.3 °F 29.87 in Calm   4.0 mph 72% 0.00 in 0.00 W/m2
23:07 65.6 °F 56.7 °F 29.87 in Calm     73% 0.00 in 0.00 W/m2
23:12 65.5 °F 56.6 °F 29.87 in SSW 1.0 mph 4.0 mph 73% 0.00 in 0.00 W/m2
23:17 65.5 °F 56.6 °F 29.87 in Calm   5.0 mph 73% 0.00 in 0.00 W/m2
23:22 65.5 °F 57.0 °F 29.86 in Calm   6.0 mph 74% 0.00 in 0.00 W/m2
23:27 65.4 °F 56.9 °F 29.86 in SSE 2.0 mph 6.0 mph 74% 0.00 in 0.00 W/m2
23:32 65.3 °F 56.8 °F 29.86 in Calm   7.0 mph 74% 0.00 in 0.00 W/m2
23:37 65.3 °F 56.8 °F 29.86 in Calm   5.0 mph 74% 0.00 in 0.00 W/m2
23:42 65.2 °F 56.7 °F 29.86 in SE 4.0 mph 6.0 mph 74% 0.00 in 0.00 W/m2
23:47 65.2 °F 56.7 °F 29.86 in SE 2.0 mph 4.0 mph 74% 0.00 in 0.00 W/m2
23:52 65.1 °F 56.6 °F 29.86 in Calm   8.0 mph 74% 0.00 in 0.00 W/m2
23:57 65.0 °F 56.5 °F 29.86 in Calm   6.0 mph 74% 0.00 in 0.00 W/m2
Foresthill Weather
 WU-history PHP script courtesy of   Juneau County Weather.
powered by Cumulus v1.9.3 (1059)
Ambient Weather VWS v14.00
Top Contact Website Map Copyright © 2007 - 2018 Foresthillweather.com Never base important decisions on this or any weather information obtained from the Internet